WMT2YP LDPL-LROP
Flight info
| Callsign | WMT2YP |
|---|---|
| Flight time | 1h 26m |
| Altitude | 35000 |
| Route | OBALA1V/27 OBALA DCT OKSIG DCT BABOL DCT VELIP DCT UBOGU DCT TOSVI |
| Aircraft | A20N/M-SDE2E3FGHIRWXY/LB1 |
Departure
| Time | 2026-04-25 17:57 |
|---|---|
| Airport | Pula Airport (LDPL) |
Arrival
| Time | 2026-04-25 19:23 |
|---|---|
| Airport | Bucharest Henri Coandă International Airport (LROP) |
| Time | Latitude | Longitude | Altitude | Speed | Heading |
|---|---|---|---|---|---|
| 2026-04-25 17:24 | 44.89672 | 13.92157 | 226 ft | 0 kts | 45° |
| 2026-04-25 17:47 | 44.89669 | 13.92153 | 226 ft | 2 kts | 45° |
| 2026-04-25 17:47 | 44.89658 | 13.92137 | 227 ft | 2 kts | 43° |
| 2026-04-25 17:47 | 44.89645 | 13.92121 | 226 ft | 2 kts | 41° |
| 2026-04-25 17:47 | 44.89633 | 13.92106 | 226 ft | 2 kts | 53° |
| 2026-04-25 17:48 | 44.89629 | 13.92096 | 226 ft | 0 kts | 86° |
| 2026-04-25 17:51 | 44.89629 | 13.92100 | 227 ft | 2 kts | 86° |
| 2026-04-25 17:51 | 44.89630 | 13.92137 | 226 ft | 6 kts | 87° |
| 2026-04-25 17:52 | 44.89632 | 13.92212 | 226 ft | 9 kts | 91° |
| 2026-04-25 17:52 | 44.89624 | 13.92236 | 227 ft | 9 kts | 132° |
| 2026-04-25 17:52 | 44.89578 | 13.92338 | 226 ft | 11 kts | 87° |
| 2026-04-25 17:52 | 44.89583 | 13.92514 | 226 ft | 15 kts | 89° |
| 2026-04-25 17:53 | 44.89584 | 13.92622 | 225 ft | 18 kts | 89° |
| 2026-04-25 17:53 | 44.89588 | 13.92854 | 226 ft | 16 kts | 88° |
| 2026-04-25 17:53 | 44.89591 | 13.92962 | 226 ft | 17 kts | 88° |
| 2026-04-25 17:53 | 44.89594 | 13.93111 | 228 ft | 13 kts | 89° |
| 2026-04-25 17:54 | 44.89564 | 13.93247 | 227 ft | 17 kts | 120° |
| 2026-04-25 17:54 | 44.89503 | 13.93401 | 225 ft | 14 kts | 118° |
| 2026-04-25 17:54 | 44.89478 | 13.93465 | 226 ft | 0 kts | 122° |
| 2026-04-25 17:55 | 44.89472 | 13.93473 | 226 ft | 4 kts | 132° |
| 2026-04-25 17:56 | 44.89425 | 13.93502 | 226 ft | 13 kts | 174° |
| 2026-04-25 17:56 | 44.89379 | 13.93394 | 228 ft | 17 kts | 285° |
| 2026-04-25 17:56 | 44.89380 | 13.93286 | 227 ft | 0 kts | 267° |
| 2026-04-25 17:56 | 44.89376 | 13.93122 | 223 ft | 51 kts | 269° |
| 2026-04-25 17:57 | 44.89356 | 13.92294 | 223 ft | 114 kts | 268° |
| 2026-04-25 17:57 | 44.89327 | 13.90939 | 255 ft | 161 kts | 268° |
| 2026-04-25 17:57 | 44.89290 | 13.89298 | 901 ft | 168 kts | 267° |
| 2026-04-25 17:57 | 44.89262 | 13.88211 | 1559 ft | 167 kts | 267° |
| 2026-04-25 17:58 | 44.89200 | 13.86004 | 2521 ft | 175 kts | 268° |
| 2026-04-25 17:58 | 44.89151 | 13.84209 | 2881 ft | 196 kts | 268° |
| 2026-04-25 17:58 | 44.89097 | 13.82169 | 3327 ft | 217 kts | 268° |
| 2026-04-25 17:58 | 44.89041 | 13.80032 | 4255 ft | 218 kts | 268° |
| 2026-04-25 17:59 | 44.89150 | 13.77920 | 5314 ft | 217 kts | 288° |
| 2026-04-25 17:59 | 44.89962 | 13.76128 | 6256 ft | 223 kts | 319° |
| 2026-04-25 17:59 | 44.91376 | 13.75189 | 7150 ft | 231 kts | 351° |
| 2026-04-25 17:59 | 44.93009 | 13.75079 | 7984 ft | 241 kts | 357° |
| 2026-04-25 18:00 | 44.94716 | 13.75035 | 8829 ft | 247 kts | 357° |
| 2026-04-25 18:00 | 44.96442 | 13.74986 | 9837 ft | 248 kts | 357° |
| 2026-04-25 18:00 | 44.98179 | 13.75165 | 10693 ft | 255 kts | 15° |
| 2026-04-25 18:00 | 44.99707 | 13.76403 | 11482 ft | 264 kts | 43° |
| 2026-04-25 18:01 | 45.00702 | 13.78618 | 12296 ft | 273 kts | 71° |
| 2026-04-25 18:01 | 45.00976 | 13.81305 | 13037 ft | 284 kts | 87° |
| 2026-04-25 18:01 | 45.01001 | 13.84210 | 13411 ft | 308 kts | 90° |
| 2026-04-25 18:01 | 45.00983 | 13.87358 | 13729 ft | 332 kts | 90° |
| 2026-04-25 18:02 | 45.00995 | 13.90740 | 13972 ft | 356 kts | 89° |
| 2026-04-25 18:02 | 45.01046 | 13.94323 | 14419 ft | 370 kts | 88° |
| 2026-04-25 18:02 | 45.01123 | 13.97975 | 15179 ft | 374 kts | 88° |
| 2026-04-25 18:02 | 45.01209 | 14.01677 | 15952 ft | 378 kts | 88° |
| 2026-04-25 18:03 | 45.01299 | 14.05409 | 16687 ft | 382 kts | 88° |
| 2026-04-25 18:03 | 45.01274 | 14.09184 | 17411 ft | 387 kts | 95° |
| 2026-04-25 18:03 | 45.00922 | 14.12977 | 18144 ft | 392 kts | 99° |
| 2026-04-25 18:03 | 45.00524 | 14.16804 | 18788 ft | 396 kts | 98° |
| 2026-04-25 18:04 | 45.00132 | 14.20629 | 19344 ft | 402 kts | 99° |
| 2026-04-25 18:04 | 44.99730 | 14.24569 | 19939 ft | 407 kts | 99° |
| 2026-04-25 18:04 | 44.99321 | 14.28556 | 20528 ft | 412 kts | 99° |
| 2026-04-25 18:04 | 44.98906 | 14.32589 | 21107 ft | 417 kts | 99° |
| 2026-04-25 18:05 | 44.98485 | 14.36666 | 21680 ft | 423 kts | 99° |
| 2026-04-25 18:05 | 44.98055 | 14.40805 | 22261 ft | 428 kts | 99° |
| 2026-04-25 18:05 | 44.97619 | 14.44992 | 22849 ft | 433 kts | 99° |
| 2026-04-25 18:05 | 44.97176 | 14.49221 | 23417 ft | 438 kts | 99° |
| 2026-04-25 18:06 | 44.96726 | 14.53500 | 23935 ft | 442 kts | 99° |
| 2026-04-25 18:06 | 44.96271 | 14.57808 | 24465 ft | 445 kts | 99° |
| 2026-04-25 18:06 | 44.95818 | 14.62086 | 24961 ft | 447 kts | 99° |
| 2026-04-25 18:06 | 44.95348 | 14.66501 | 25462 ft | 450 kts | 99° |
| 2026-04-25 18:07 | 44.94883 | 14.70848 | 25942 ft | 453 kts | 99° |
| 2026-04-25 18:07 | 44.94403 | 14.75321 | 26433 ft | 456 kts | 99° |
| 2026-04-25 18:07 | 44.93931 | 14.79711 | 26881 ft | 460 kts | 99° |
| 2026-04-25 18:07 | 44.93447 | 14.84189 | 27342 ft | 462 kts | 99° |
| 2026-04-25 18:08 | 44.92959 | 14.88688 | 27778 ft | 465 kts | 99° |
| 2026-04-25 18:08 | 44.92466 | 14.93214 | 28205 ft | 468 kts | 99° |
| 2026-04-25 18:08 | 44.92014 | 14.97773 | 28630 ft | 471 kts | 95° |
| 2026-04-25 18:08 | 44.91840 | 15.02409 | 29030 ft | 474 kts | 92° |
| 2026-04-25 18:09 | 44.91694 | 15.07072 | 29405 ft | 478 kts | 92° |
| 2026-04-25 18:09 | 44.91546 | 15.11760 | 29833 ft | 479 kts | 92° |
| 2026-04-25 18:09 | 44.91392 | 15.16458 | 30171 ft | 482 kts | 93° |
| 2026-04-25 18:09 | 44.91285 | 15.19669 | 30400 ft | 484 kts | 93° |
| 2026-04-25 18:10 | 44.91070 | 15.25960 | 30830 ft | 487 kts | 93° |
| 2026-04-25 18:10 | 44.90903 | 15.30752 | 31175 ft | 489 kts | 93° |
| 2026-04-25 18:10 | 44.90734 | 15.35542 | 31585 ft | 489 kts | 93° |
| 2026-04-25 18:10 | 44.90563 | 15.40347 | 32011 ft | 489 kts | 93° |
| 2026-04-25 18:11 | 44.90390 | 15.45144 | 32438 ft | 488 kts | 93° |
| 2026-04-25 18:11 | 44.90215 | 15.49940 | 32830 ft | 487 kts | 93° |
| 2026-04-25 18:11 | 44.90038 | 15.54717 | 33196 ft | 488 kts | 93° |
| 2026-04-25 18:11 | 44.89860 | 15.59492 | 33591 ft | 487 kts | 93° |
| 2026-04-25 18:12 | 44.89681 | 15.64242 | 33982 ft | 486 kts | 93° |
| 2026-04-25 18:12 | 44.89501 | 15.68949 | 34312 ft | 486 kts | 93° |
| 2026-04-25 18:12 | 44.89318 | 15.73698 | 34628 ft | 485 kts | 93° |
| 2026-04-25 18:12 | 44.89129 | 15.78512 | 34915 ft | 485 kts | 93° |
| 2026-04-25 18:13 | 44.88945 | 15.83187 | 34996 ft | 483 kts | 93° |
| 2026-04-25 18:13 | 44.88566 | 15.92655 | 34996 ft | 483 kts | 93° |
| 2026-04-25 18:14 | 44.87982 | 16.06849 | 34994 ft | 483 kts | 93° |
| 2026-04-25 18:14 | 44.87582 | 16.16321 | 34990 ft | 484 kts | 93° |
| 2026-04-25 18:15 | 44.87176 | 16.25761 | 34983 ft | 483 kts | 93° |
| 2026-04-25 18:15 | 44.86762 | 16.35218 | 34979 ft | 482 kts | 94° |
| 2026-04-25 18:16 | 44.86343 | 16.44601 | 34980 ft | 482 kts | 94° |
| 2026-04-25 18:17 | 44.85697 | 16.58751 | 34963 ft | 482 kts | 94° |
| 2026-04-25 18:17 | 44.85255 | 16.68187 | 34968 ft | 482 kts | 94° |
| 2026-04-25 18:18 | 44.84807 | 16.77622 | 34963 ft | 483 kts | 94° |
| 2026-04-25 18:18 | 44.84350 | 16.87066 | 34975 ft | 483 kts | 94° |
| 2026-04-25 18:19 | 44.83888 | 16.96462 | 34975 ft | 484 kts | 94° |
| 2026-04-25 18:19 | 44.83478 | 17.05925 | 34971 ft | 484 kts | 92° |
| 2026-04-25 18:20 | 44.83244 | 17.15415 | 34970 ft | 484 kts | 91° |
| 2026-04-25 18:20 | 44.82994 | 17.24895 | 34970 ft | 484 kts | 92° |
| 2026-04-25 18:21 | 44.82714 | 17.34383 | 34973 ft | 484 kts | 92° |
| 2026-04-25 18:21 | 44.82424 | 17.43812 | 34977 ft | 485 kts | 92° |
| 2026-04-25 18:22 | 44.82124 | 17.53302 | 34975 ft | 485 kts | 92° |
| 2026-04-25 18:22 | 44.81816 | 17.62799 | 34975 ft | 485 kts | 92° |
| 2026-04-25 18:23 | 44.81501 | 17.72274 | 34984 ft | 484 kts | 92° |
| 2026-04-25 18:23 | 44.81181 | 17.81686 | 34982 ft | 484 kts | 92° |
| 2026-04-25 18:24 | 44.80850 | 17.91167 | 34988 ft | 484 kts | 92° |
| 2026-04-25 18:24 | 44.80511 | 18.00644 | 34986 ft | 484 kts | 92° |
| 2026-04-25 18:25 | 44.80165 | 18.10114 | 34990 ft | 484 kts | 92° |
| 2026-04-25 18:25 | 44.79812 | 18.19542 | 34986 ft | 484 kts | 92° |
| 2026-04-25 18:26 | 44.79450 | 18.29020 | 34983 ft | 484 kts | 92° |
| 2026-04-25 18:26 | 44.79079 | 18.38513 | 34981 ft | 484 kts | 92° |
| 2026-04-25 18:27 | 44.78701 | 18.47983 | 34987 ft | 484 kts | 92° |
| 2026-04-25 18:27 | 44.78316 | 18.57446 | 34988 ft | 484 kts | 92° |
| 2026-04-25 18:28 | 44.78014 | 18.66915 | 34988 ft | 483 kts | 88° |
| 2026-04-25 18:28 | 44.78159 | 18.76312 | 34982 ft | 483 kts | 87° |
| 2026-04-25 18:29 | 44.78347 | 18.90490 | 34984 ft | 483 kts | 88° |
| 2026-04-25 18:30 | 44.78466 | 19.09414 | 34993 ft | 483 kts | 88° |
| 2026-04-25 18:30 | 44.78512 | 19.18884 | 34994 ft | 483 kts | 88° |
| 2026-04-25 18:31 | 44.78550 | 19.28343 | 34992 ft | 483 kts | 88° |
| 2026-04-25 18:31 | 44.78581 | 19.37803 | 34998 ft | 483 kts | 88° |
| 2026-04-25 18:32 | 44.78604 | 19.47198 | 34990 ft | 483 kts | 88° |
| 2026-04-25 18:32 | 44.78619 | 19.56654 | 34995 ft | 483 kts | 88° |
| 2026-04-25 18:33 | 44.78627 | 19.66126 | 34993 ft | 483 kts | 88° |
| 2026-04-25 18:33 | 44.78626 | 19.75583 | 34995 ft | 483 kts | 88° |
| 2026-04-25 18:34 | 44.78618 | 19.85036 | 34997 ft | 483 kts | 88° |
| 2026-04-25 18:34 | 44.78602 | 19.94493 | 34993 ft | 483 kts | 88° |
| 2026-04-25 18:35 | 44.78578 | 20.03952 | 34994 ft | 483 kts | 88° |
| 2026-04-25 18:35 | 44.78547 | 20.13337 | 34994 ft | 483 kts | 88° |
| 2026-04-25 18:36 | 44.78508 | 20.22794 | 35000 ft | 483 kts | 88° |
| 2026-04-25 18:36 | 44.78461 | 20.32251 | 34995 ft | 482 kts | 88° |
| 2026-04-25 18:37 | 44.78415 | 20.40119 | 34996 ft | 482 kts | 88° |
| 2026-04-25 18:37 | 44.78343 | 20.51158 | 34997 ft | 482 kts | 88° |
| 2026-04-25 18:38 | 44.78273 | 20.60557 | 34999 ft | 482 kts | 89° |
| 2026-04-25 18:38 | 44.78209 | 20.68403 | 34999 ft | 482 kts | 89° |
| 2026-04-25 18:39 | 44.78124 | 20.77840 | 35002 ft | 482 kts | 89° |
| 2026-04-25 18:39 | 44.78032 | 20.87268 | 35001 ft | 481 kts | 89° |
| 2026-04-25 18:40 | 44.77933 | 20.96632 | 35000 ft | 481 kts | 89° |
| 2026-04-25 18:40 | 44.77825 | 21.06073 | 34997 ft | 481 kts | 89° |
| 2026-04-25 18:41 | 44.77710 | 21.15471 | 34995 ft | 480 kts | 89° |
| 2026-04-25 18:41 | 44.77588 | 21.24830 | 34996 ft | 480 kts | 89° |
| 2026-04-25 18:42 | 44.77479 | 21.32702 | 34995 ft | 480 kts | 89° |
| 2026-04-25 18:42 | 44.77319 | 21.43638 | 35000 ft | 480 kts | 89° |
| 2026-04-25 18:43 | 44.77177 | 21.53048 | 34998 ft | 480 kts | 89° |
| 2026-04-25 18:43 | 44.77196 | 21.62437 | 35002 ft | 479 kts | 86° |
| 2026-04-25 18:44 | 44.77333 | 21.71819 | 35005 ft | 480 kts | 86° |
| 2026-04-25 18:44 | 44.77436 | 21.81155 | 35012 ft | 480 kts | 86° |
| 2026-04-25 18:45 | 44.77515 | 21.90540 | 35014 ft | 480 kts | 87° |
| 2026-04-25 18:45 | 44.77584 | 21.99943 | 35016 ft | 480 kts | 87° |
| 2026-04-25 18:46 | 44.77643 | 22.09333 | 35010 ft | 478 kts | 87° |
| 2026-04-25 18:46 | 44.77696 | 22.18707 | 35005 ft | 479 kts | 87° |
| 2026-04-25 18:47 | 44.77742 | 22.28084 | 35008 ft | 479 kts | 87° |
| 2026-04-25 18:47 | 44.77779 | 22.37472 | 35004 ft | 479 kts | 87° |
| 2026-04-25 18:48 | 44.77809 | 22.46850 | 34995 ft | 478 kts | 87° |
| 2026-04-25 18:48 | 44.77831 | 22.56151 | 34983 ft | 477 kts | 87° |
| 2026-04-25 18:49 | 44.77845 | 22.65501 | 34994 ft | 478 kts | 87° |
| 2026-04-25 18:49 | 44.77853 | 22.74875 | 34991 ft | 479 kts | 87° |
| 2026-04-25 18:50 | 44.77852 | 22.84270 | 34983 ft | 479 kts | 87° |
| 2026-04-25 18:50 | 44.77843 | 22.93593 | 34980 ft | 479 kts | 87° |
| 2026-04-25 18:51 | 44.77836 | 22.98288 | 34837 ft | 479 kts | 87° |
| 2026-04-25 18:51 | 44.77830 | 23.01456 | 34671 ft | 479 kts | 87° |
| 2026-04-25 18:51 | 44.77816 | 23.07665 | 34352 ft | 479 kts | 87° |
| 2026-04-25 18:51 | 44.77803 | 23.12352 | 34112 ft | 479 kts | 87° |
| 2026-04-25 18:52 | 44.77789 | 23.17046 | 33864 ft | 480 kts | 88° |
| 2026-04-25 18:52 | 44.77772 | 23.21733 | 33588 ft | 479 kts | 88° |
| 2026-04-25 18:52 | 44.77754 | 23.26425 | 33317 ft | 479 kts | 88° |
| 2026-04-25 18:52 | 44.77734 | 23.31124 | 33050 ft | 479 kts | 88° |
| 2026-04-25 18:53 | 44.77711 | 23.35813 | 32780 ft | 479 kts | 88° |
| 2026-04-25 18:53 | 44.77687 | 23.40498 | 32514 ft | 479 kts | 88° |
| 2026-04-25 18:53 | 44.77661 | 23.45198 | 32253 ft | 479 kts | 88° |
| 2026-04-25 18:53 | 44.77632 | 23.49881 | 31996 ft | 479 kts | 88° |
| 2026-04-25 18:54 | 44.77571 | 23.59214 | 31491 ft | 479 kts | 89° |
| 2026-04-25 18:54 | 44.77538 | 23.63900 | 31237 ft | 479 kts | 89° |
| 2026-04-25 18:54 | 44.77502 | 23.68595 | 30991 ft | 479 kts | 89° |
| 2026-04-25 18:55 | 44.77464 | 23.73303 | 30743 ft | 480 kts | 89° |
| 2026-04-25 18:55 | 44.77425 | 23.77988 | 30499 ft | 477 kts | 89° |
| 2026-04-25 18:55 | 44.77383 | 23.82635 | 30058 ft | 472 kts | 89° |
| 2026-04-25 18:55 | 44.77340 | 23.87251 | 29408 ft | 468 kts | 89° |
| 2026-04-25 18:56 | 44.77295 | 23.91818 | 28776 ft | 463 kts | 89° |
| 2026-04-25 18:56 | 44.77249 | 23.96332 | 28127 ft | 459 kts | 89° |
| 2026-04-25 18:56 | 44.77203 | 24.00747 | 27507 ft | 454 kts | 89° |
| 2026-04-25 18:56 | 44.77147 | 24.05227 | 26897 ft | 450 kts | 90° |
| 2026-04-25 18:57 | 44.77039 | 24.09615 | 26288 ft | 446 kts | 90° |
| 2026-04-25 18:57 | 44.76909 | 24.13906 | 25707 ft | 442 kts | 90° |
| 2026-04-25 18:57 | 44.76777 | 24.18222 | 25123 ft | 438 kts | 90° |
| 2026-04-25 18:57 | 44.76692 | 24.21053 | 24745 ft | 436 kts | 90° |
| 2026-04-25 18:58 | 44.76526 | 24.26743 | 23992 ft | 431 kts | 90° |
| 2026-04-25 18:58 | 44.76282 | 24.35104 | 22779 ft | 424 kts | 90° |
| 2026-04-25 18:58 | 44.76163 | 24.39174 | 22171 ft | 420 kts | 90° |
| 2026-04-25 18:59 | 44.75919 | 24.47331 | 20966 ft | 413 kts | 90° |
| 2026-04-25 18:59 | 44.75672 | 24.55366 | 19799 ft | 407 kts | 90° |
| 2026-04-25 19:00 | 44.75423 | 24.63267 | 18673 ft | 401 kts | 91° |
| 2026-04-25 19:00 | 44.75298 | 24.67184 | 18112 ft | 398 kts | 91° |
| 2026-04-25 19:01 | 44.75048 | 24.74842 | 16986 ft | 391 kts | 91° |
| 2026-04-25 19:01 | 44.74923 | 24.78647 | 16431 ft | 387 kts | 91° |
| 2026-04-25 19:01 | 44.74797 | 24.82418 | 15898 ft | 383 kts | 91° |
| 2026-04-25 19:01 | 44.74672 | 24.86147 | 15368 ft | 380 kts | 91° |
| 2026-04-25 19:02 | 44.74421 | 24.93501 | 14353 ft | 373 kts | 91° |
| 2026-04-25 19:02 | 44.74295 | 24.97135 | 13844 ft | 370 kts | 91° |
| 2026-04-25 19:02 | 44.74169 | 25.00732 | 13314 ft | 366 kts | 91° |
| 2026-04-25 19:03 | 44.74002 | 25.05447 | 12628 ft | 361 kts | 91° |
| 2026-04-25 19:03 | 44.73793 | 25.11293 | 11766 ft | 355 kts | 91° |
| 2026-04-25 19:03 | 44.73669 | 25.14711 | 11276 ft | 352 kts | 91° |
| 2026-04-25 19:04 | 44.73420 | 25.21516 | 10344 ft | 344 kts | 91° |
| 2026-04-25 19:04 | 44.73297 | 25.24804 | 10211 ft | 329 kts | 91° |
| 2026-04-25 19:05 | 44.73065 | 25.30943 | 9931 ft | 301 kts | 91° |
| 2026-04-25 19:05 | 44.72847 | 25.36712 | 9198 ft | 293 kts | 91° |
| 2026-04-25 19:05 | 44.72739 | 25.39573 | 8786 ft | 292 kts | 91° |
| 2026-04-25 19:06 | 44.72630 | 25.42408 | 8376 ft | 290 kts | 91° |
| 2026-04-25 19:06 | 44.72411 | 25.48037 | 7577 ft | 287 kts | 91° |
| 2026-04-25 19:06 | 44.72301 | 25.50832 | 7203 ft | 285 kts | 91° |
| 2026-04-25 19:07 | 44.72082 | 25.56346 | 6972 ft | 285 kts | 91° |
| 2026-04-25 19:07 | 44.71971 | 25.59121 | 6971 ft | 284 kts | 91° |
| 2026-04-25 19:08 | 44.71746 | 25.64650 | 6962 ft | 274 kts | 91° |
| 2026-04-25 19:08 | 44.71640 | 25.67198 | 6965 ft | 252 kts | 91° |
| 2026-04-25 19:09 | 44.71349 | 25.74264 | 6972 ft | 240 kts | 91° |
| 2026-04-25 19:09 | 44.71285 | 25.75814 | 6973 ft | 240 kts | 91° |
| 2026-04-25 19:09 | 44.71057 | 25.81287 | 6968 ft | 239 kts | 91° |
| 2026-04-25 19:10 | 44.70960 | 25.83585 | 6968 ft | 239 kts | 91° |
| 2026-04-25 19:10 | 44.70861 | 25.85917 | 6966 ft | 239 kts | 92° |
| 2026-04-25 19:10 | 44.70761 | 25.88241 | 6969 ft | 238 kts | 92° |
| 2026-04-25 19:10 | 44.70662 | 25.90568 | 6965 ft | 239 kts | 92° |
| 2026-04-25 19:11 | 44.70561 | 25.92894 | 6966 ft | 238 kts | 92° |
| 2026-04-25 19:11 | 44.70461 | 25.95223 | 6965 ft | 238 kts | 92° |
| 2026-04-25 19:11 | 44.70360 | 25.97549 | 6968 ft | 238 kts | 92° |
| 2026-04-25 19:11 | 44.70258 | 25.99870 | 6970 ft | 238 kts | 92° |
| 2026-04-25 19:12 | 44.70156 | 26.02193 | 6964 ft | 238 kts | 92° |
| 2026-04-25 19:12 | 44.70054 | 26.04515 | 6967 ft | 238 kts | 92° |
| 2026-04-25 19:12 | 44.69951 | 26.06836 | 6967 ft | 238 kts | 92° |
| 2026-04-25 19:12 | 44.69848 | 26.09156 | 6964 ft | 238 kts | 92° |
| 2026-04-25 19:13 | 44.69743 | 26.11475 | 6966 ft | 238 kts | 92° |
| 2026-04-25 19:13 | 44.69640 | 26.13778 | 6887 ft | 235 kts | 92° |
| 2026-04-25 19:13 | 44.69536 | 26.16081 | 6634 ft | 235 kts | 92° |
| 2026-04-25 19:13 | 44.69434 | 26.18335 | 6352 ft | 233 kts | 92° |
| 2026-04-25 19:14 | 44.69330 | 26.20621 | 5919 ft | 234 kts | 92° |
| 2026-04-25 19:14 | 44.69295 | 26.21396 | 5764 ft | 234 kts | 92° |
| 2026-04-25 19:14 | 44.69121 | 26.25205 | 5074 ft | 235 kts | 92° |
| 2026-04-25 19:14 | 44.69016 | 26.27490 | 4670 ft | 235 kts | 92° |
| 2026-04-25 19:15 | 44.68911 | 26.29772 | 4303 ft | 233 kts | 93° |
| 2026-04-25 19:15 | 44.68807 | 26.32046 | 3932 ft | 234 kts | 93° |
| 2026-04-25 19:15 | 44.68702 | 26.34323 | 3665 ft | 233 kts | 94° |
| 2026-04-25 19:15 | 44.68598 | 26.36561 | 3410 ft | 232 kts | 94° |
| 2026-04-25 19:16 | 44.68493 | 26.38825 | 3141 ft | 232 kts | 94° |
| 2026-04-25 19:16 | 44.68452 | 26.41090 | 2870 ft | 231 kts | 87° |
| 2026-04-25 19:16 | 44.68224 | 26.43297 | 2589 ft | 228 kts | 117° |
| 2026-04-25 19:16 | 44.67235 | 26.44909 | 2502 ft | 213 kts | 153° |
| 2026-04-25 19:17 | 44.65809 | 26.45437 | 2500 ft | 213 kts | 185° |
| 2026-04-25 19:17 | 44.64432 | 26.44920 | 2503 ft | 206 kts | 212° |
| 2026-04-25 19:17 | 44.63198 | 26.43872 | 2499 ft | 207 kts | 213° |
| 2026-04-25 19:17 | 44.61945 | 26.42861 | 2500 ft | 208 kts | 212° |
| 2026-04-25 19:18 | 44.60837 | 26.41606 | 2500 ft | 205 kts | 235° |
| 2026-04-25 19:18 | 44.60210 | 26.39830 | 2499 ft | 203 kts | 254° |
| 2026-04-25 19:18 | 44.59930 | 26.37962 | 2496 ft | 188 kts | 262° |
| 2026-04-25 19:18 | 44.59779 | 26.36189 | 2502 ft | 182 kts | 264° |
| 2026-04-25 19:19 | 44.59645 | 26.34410 | 2501 ft | 183 kts | 264° |
| 2026-04-25 19:19 | 44.59511 | 26.32667 | 2503 ft | 182 kts | 264° |
| 2026-04-25 19:19 | 44.59377 | 26.30901 | 2497 ft | 182 kts | 264° |
| 2026-04-25 19:19 | 44.59331 | 26.30307 | 2505 ft | 179 kts | 264° |
| 2026-04-25 19:20 | 44.59128 | 26.27640 | 2383 ft | 157 kts | 264° |
| 2026-04-25 19:20 | 44.59013 | 26.26138 | 2181 ft | 152 kts | 264° |
| 2026-04-25 19:20 | 44.58903 | 26.24700 | 1979 ft | 143 kts | 264° |
| 2026-04-25 19:20 | 44.58802 | 26.23370 | 1802 ft | 130 kts | 263° |
| 2026-04-25 19:21 | 44.58709 | 26.22156 | 1645 ft | 125 kts | 263° |
| 2026-04-25 19:21 | 44.58523 | 26.19711 | 1298 ft | 126 kts | 263° |
| 2026-04-25 19:21 | 44.58429 | 26.18484 | 1135 ft | 126 kts | 263° |
| 2026-04-25 19:22 | 44.58336 | 26.17253 | 963 ft | 128 kts | 263° |
| 2026-04-25 19:22 | 44.58241 | 26.16016 | 798 ft | 128 kts | 262° |
| 2026-04-25 19:22 | 44.58053 | 26.13542 | 462 ft | 128 kts | 262° |
| 2026-04-25 19:23 | 44.57959 | 26.12329 | 322 ft | 122 kts | 263° |
| 2026-04-25 19:23 | 44.57856 | 26.11010 | 321 ft | 31 kts | 264° |
| 2026-04-25 19:23 | 44.57830 | 26.10688 | 322 ft | 36 kts | 263° |
| 2026-04-25 19:24 | 44.57800 | 26.10311 | 323 ft | 40 kts | 263° |
| 2026-04-25 19:24 | 44.57754 | 26.10056 | 320 ft | 41 kts | 248° |
| 2026-04-25 19:24 | 44.57492 | 26.09843 | 320 ft | 25 kts | 175° |
| 2026-04-25 19:25 | 44.57156 | 26.09892 | 322 ft | 25 kts | 174° |
| 2026-04-25 19:25 | 44.57028 | 26.09903 | 321 ft | 13 kts | 192° |
| 2026-04-25 19:25 | 44.57014 | 26.09824 | 320 ft | 12 kts | 270° |
| 2026-04-25 19:26 | 44.57001 | 26.09662 | 322 ft | 21 kts | 263° |
| 2026-04-25 19:26 | 44.56979 | 26.09513 | 322 ft | 10 kts | 220° |
| 2026-04-25 19:26 | 44.56932 | 26.09520 | 321 ft | 9 kts | 174° |
| 2026-04-25 19:26 | 44.56910 | 26.09522 | 319 ft | 0 kts | 175° |
| 2026-04-25 19:27 | 44.56938 | 26.09519 | 320 ft | 0 kts | 175° |